Time;durP1;ratioP1;P1;durP2;ratioP2;P2;SDS_P1;SDS_P2;PMS_P1;PMS_P2;Temp;Humidity;BMP_temperature;BMP_pressure;BME280_temperature;BME280_humidity;BME280_pressure;Samples;Min_cycle;Max_cycle;Signal;HPM_P1;HPM_P2
2022/01/04 00:00:06;;;;;;;36.03;20.65;;;;;;;7.34;100.00;100087.41;1027907;28;20320;-79
2022/01/04 00:00:38;;;;;;;34.00;20.80;;;;;;;7.31;100.00;100085.19;1030395;28;20317;-79
2022/01/04 00:01:09;;;;;;;23.23;20.33;;;;;;;7.29;100.00;100090.69;1028858;28;20297;-79
2022/01/04 00:01:41;;;;;;;29.50;19.63;;;;;;;7.26;100.00;100087.66;1028152;28;20286;-79
2022/01/04 00:02:13;;;;;;;29.95;20.38;;;;;;;7.26;100.00;100082.38;1027946;28;20286;-79
2022/01/04 00:02:45;;;;;;;27.15;20.42;;;;;;;7.26;100.00;100082.38;1027205;28;20694;-79
2022/01/04 00:03:16;;;;;;;22.20;18.90;;;;;;;7.25;100.00;100084.19;1026073;28;20324;-80
2022/01/04 00:03:48;;;;;;;25.58;21.02;;;;;;;7.27;100.00;100084.78;1027370;28;20285;-79
2022/01/04 00:04:20;;;;;;;24.52;19.73;;;;;;;7.28;100.00;100082.97;1031272;28;20283;-79
2022/01/04 00:04:51;;;;;;;25.38;21.65;;;;;;;7.28;100.00;100081.13;1029286;28;20293;-78
2022/01/04 00:05:23;;;;;;;24.20;20.67;;;;;;;7.24;100.00;100073.81;1029695;28;20273;-80
2022/01/04 00:05:55;;;;;;;28.73;19.95;;;;;;;7.28;100.00;100077.66;1031980;28;20295;-79
2022/01/04 00:06:26;;;;;;;28.70;19.75;;;;;;;7.28;100.00;100080.31;1033502;28;20302;-79
2022/01/04 00:06:58;;;;;;;27.42;19.88;;;;;;;7.28;100.00;100081.13;1035500;28;20284;-80
2022/01/04 00:07:30;;;;;;;22.83;19.27;;;;;;;7.28;100.00;100072.38;1030036;28;20288;-79
2022/01/04 00:08:01;;;;;;;31.95;19.50;;;;;;;7.30;100.00;100075.59;1027247;28;20670;-79
2022/01/04 00:08:33;;;;;;;33.30;21.65;;;;;;;7.30;100.00;100070.31;1031920;28;20307;-78
2022/01/04 00:09:07;;;;;;;28.15;19.27;;;;;;;7.29;100.00;100069.50;1038654;28;20667;-79
2022/01/04 00:09:43;;;;;;;25.38;20.63;;;;;;;7.28;100.00;100072.38;1037886;28;20280;-79
2022/01/04 00:10:20;;;;;;;26.75;19.70;;;;;;;7.28;100.00;100067.06;1037101;28;20356;-80
2022/01/04 00:11:05;;;;;;;22.77;18.75;;;;;;;7.26;100.00;100064.63;1029897;28;20289;-79
2022/01/04 00:13:23;;;;;;;20.95;16.38;;;;;;;7.30;100.00;100054.41;1035325;28;20277;-79
2022/01/04 00:13:56;;;;;;;28.00;16.70;;;;;;;7.28;100.00;100056.47;1027252;28;20282;-79
2022/01/04 00:14:27;;;;;;;24.95;17.20;;;;;;;7.26;100.00;100063.81;1035075;28;20284;-79
2022/01/04 00:14:59;;;;;;;22.60;18.15;;;;;;;7.29;100.00;100063.38;1034789;28;20280;-78
2022/01/04 00:15:31;;;;;;;22.88;17.25;;;;;;;7.27;100.00;100060.16;1032163;28;20357;-78
2022/01/04 00:16:07;;;;;;;26.92;17.63;;;;;;;7.25;100.00;100063.00;1028059;28;20286;-78
2022/01/04 00:16:39;;;;;;;24.67;17.52;;;;;;;7.25;100.00;100059.56;1030736;28;20641;-78
2022/01/04 00:17:10;;;;;;;21.58;16.65;;;;;;;7.24;100.00;100060.56;1031239;28;20795;-78
2022/01/04 00:17:42;;;;;;;23.00;18.15;;;;;;;7.26;100.00;100061.19;1031772;28;20333;-78
2022/01/04 00:18:15;;;;;;;27.05;19.88;;;;;;;7.27;100.00;100060.16;1026320;28;20290;-78
2022/01/04 00:18:47;;;;;;;27.35;18.17;;;;;;;7.29;100.00;100063.38;1025565;28;20279;-78
2022/01/04 00:19:18;;;;;;;22.00;17.20;;;;;;;7.26;100.00;100050.56;1023693;28;20274;-78
2022/01/04 00:19:50;;;;;;;25.50;18.05;;;;;;;7.25;100.00;100056.91;1027041;28;20654;-78
2022/01/04 00:20:22;;;;;;;26.95;18.05;;;;;;;7.26;100.00;100061.19;1027414;28;20829;-78
2022/01/04 00:20:53;;;;;;;25.85;17.17;;;;;;;7.26;100.00;100063.81;1026741;28;20278;-78
2022/01/04 00:21:25;;;;;;;25.63;18.05;;;;;;;7.28;100.00;100056.47;1029626;28;20658;-78
2022/01/04 00:21:58;;;;;;;19.42;17.23;;;;;;;7.30;100.00;100054.41;1030068;28;20832;-78
2022/01/04 00:22:30;;;;;;;31.65;17.95;;;;;;;7.34;100.00;100058.25;1031098;28;20281;-78
2022/01/04 00:23:01;;;;;;;22.73;17.15;;;;;;;7.31;100.00;100054.19;1030931;28;20420;-78
2022/01/04 00:23:33;;;;;;;22.88;16.60;;;;;;;7.31;100.00;100056.03;1027510;28;20369;-78
2022/01/04 00:24:06;;;;;;;25.50;17.63;;;;;;;7.34;100.00;100047.66;1031667;28;20288;-78
2022/01/04 00:24:37;;;;;;;30.42;18.02;;;;;;;7.33;100.00;100044.19;1028661;28;20773;-78
2022/01/04 00:25:10;;;;;;;27.33;17.08;;;;;;;7.36;100.00;100048.25;1026079;28;20294;-78
2022/01/04 00:25:42;;;;;;;24.85;16.90;;;;;;;7.33;100.00;100038.09;1031893;28;20325;-78
2022/01/04 00:26:13;;;;;;;27.42;17.83;;;;;;;7.35;100.00;100041.34;1030708;28;20312;-78
2022/01/04 00:26:45;;;;;;;23.60;18.10;;;;;;;7.34;100.00;100042.38;1030844;28;20277;-78
2022/01/04 00:27:19;;;;;;;26.80;18.10;;;;;;;7.33;100.00;100035.44;1031109;28;20379;-78
2022/01/04 00:27:51;;;;;;;23.60;18.25;;;;;;;7.33;100.00;100032.78;1027745;28;20306;-78
2022/01/04 00:28:22;;;;;;;20.55;17.73;;;;;;;7.33;100.00;100040.75;1029870;28;20281;-78
2022/01/04 00:28:53;;;;;;;29.08;16.98;;;;;;;7.33;100.00;100038.91;1028350;28;20301;-78
2022/01/04 00:29:25;;;;;;;29.02;17.40;;;;;;;7.35;100.00;100033.38;1027523;28;20282;-78
2022/01/04 00:29:57;;;;;;;25.25;17.92;;;;;;;7.35;100.00;100036.03;1031274;28;20285;-78
2022/01/04 00:30:29;;;;;;;26.63;17.52;;;;;;;7.32;100.00;100037.28;1030963;28;20300;-78
2022/01/04 00:31:01;;;;;;;21.98;16.60;;;;;;;7.28;99.95;100035.28;1027407;28;20290;-79
2022/01/04 00:31:32;;;;;;;21.45;17.30;;;;;;;7.30;100.00;100033.22;1026654;28;20309;-78
2022/01/04 00:32:04;;;;;;;22.02;16.85;;;;;;;7.27;100.00;100031.00;1024812;28;20298;-78
2022/01/04 00:32:36;;;;;;;24.38;17.60;;;;;;;7.27;100.00;100033.66;1023825;28;20282;-78
2022/01/04 00:33:09;;;;;;;27.10;17.05;;;;;;;7.31;100.00;100029.56;1026649;28;20373;-78
2022/01/04 00:33:41;;;;;;;19.63;16.63;;;;;;;7.31;100.00;100024.25;1023367;28;20658;-78
2022/01/04 00:34:12;;;;;;;21.13;17.52;;;;;;;7.31;100.00;100029.56;1023051;29;20774;-78
2022/01/04 00:34:44;;;;;;;23.63;18.33;;;;;;;7.30;99.71;100020.78;1023334;28;20287;-78
2022/01/04 00:35:16;;;;;;;26.50;17.42;;;;;;;7.27;100.00;100021.22;1027024;28;20294;-78
2022/01/04 00:35:47;;;;;;;20.63;16.63;;;;;;;7.23;99.91;100024.53;1027793;28;20278;-78
2022/01/04 00:36:19;;;;;;;25.77;18.42;;;;;;;7.24;100.00;100012.91;1034245;28;20296;-78
2022/01/04 00:36:50;;;;;;;20.73;16.38;;;;;;;7.26;99.70;100026.75;1025573;28;21541;-78
2022/01/04 00:37:25;;;;;;;26.13;17.35;;;;;;;7.26;100.00;100016.16;1025417;28;20686;-78
2022/01/04 00:37:57;;;;;;;27.73;17.27;;;;;;;7.32;100.00;100018.75;1030617;28;20360;-78
2022/01/04 00:38:28;;;;;;;23.75;16.90;;;;;;;7.30;100.00;100012.03;1027929;28;20284;-78
2022/01/04 00:39:00;;;;;;;22.58;18.00;;;;;;;7.28;99.70;100011.44;1034095;28;20416;-78
2022/01/04 00:39:32;;;;;;;23.60;16.33;;;;;;;7.28;100.00;100019.38;1033065;28;20293;-79
2022/01/04 00:40:05;;;;;;;21.60;16.02;;;;;;;7.29;100.00;100015.72;1034505;28;20371;-78
2022/01/04 00:40:37;;;;;;;21.35;16.42;;;;;;;7.30;99.75;100017.34;1033561;28;20313;-78
2022/01/04 00:41:09;;;;;;;24.98;16.70;;;;;;;7.27;100.00;100015.13;1031015;28;20300;-78
2022/01/04 00:41:40;;;;;;;21.63;16.60;;;;;;;7.28;99.49;100014.09;1028099;28;20300;-78
2022/01/04 00:42:12;;;;;;;25.13;17.55;;;;;;;7.29;99.85;100018.34;1031554;28;20277;-78
2022/01/04 00:42:43;;;;;;;24.83;16.70;;;;;;;7.25;100.00;100014.53;1030654;28;20289;-78
2022/01/04 00:43:15;;;;;;;21.75;15.68;;;;;;;7.24;100.00;100012.91;1031779;28;20285;-79
2022/01/04 00:43:46;;;;;;;23.55;18.80;;;;;;;7.30;99.67;100014.69;1030853;28;20288;-78
2022/01/04 00:44:18;;;;;;;22.98;17.88;;;;;;;7.31;100.00;100011.00;1029758;28;20804;-78
2022/01/04 00:44:49;;;;;;;22.23;18.42;;;;;;;7.29;99.71;100015.72;1025931;28;20304;-79
2022/01/04 00:45:22;;;;;;;22.33;17.17;;;;;;;7.25;99.61;100010.03;1023326;28;20370;-78
2022/01/04 00:45:54;;;;;;;26.48;17.10;;;;;;;7.27;99.99;100002.69;1023698;28;20287;-78
2022/01/04 00:46:26;;;;;;;25.15;19.40;;;;;;;7.33;99.49;100006.31;1024014;28;20290;-78
2022/01/04 00:46:59;;;;;;;25.33;17.33;;;;;;;7.32;99.59;100004.69;1030718;28;20471;-79
2022/01/04 00:47:44;;;;;;;29.10;17.77;;;;;;;7.31;99.72;100008.34;1027304;28;20646;-78
2022/01/04 00:49:38;;;;;;;21.23;17.35;;;;;;;7.34;99.96;99998.13;1030844;28;20288;-78
2022/01/04 00:50:09;;;;;;;26.13;18.20;;;;;;;7.35;99.93;100004.25;1029393;28;20293;-78
2022/01/04 00:50:41;;;;;;;30.15;18.83;;;;;;;7.35;99.07;99998.94;1030039;28;20792;-78
2022/01/04 00:51:13;;;;;;;21.75;17.95;;;;;;;7.32;99.76;100000.19;1026240;28;20305;-79
2022/01/04 00:51:49;;;;;;;29.63;19.67;;;;;;;7.38;99.49;99994.03;1027474;28;20290;-79
2022/01/04 00:52:20;;;;;;;25.88;18.27;;;;;;;7.36;99.21;99998.72;1031150;28;20297;-79
2022/01/04 00:52:52;;;;;;;25.95;19.10;;;;;;;7.38;99.77;99993.22;1029151;28;20285;-80
2022/01/04 00:53:23;;;;;;;27.02;20.13;;;;;;;7.38;99.09;99995.88;1030812;28;20292;-79
2022/01/04 00:53:55;;;;;;;22.80;19.25;;;;;;;7.36;99.53;99992.63;1023245;29;20675;-80
2022/01/04 00:54:27;;;;;;;28.17;20.23;;;;;;;7.36;100.00;99995.28;1023749;28;20283;-80
2022/01/04 00:54:58;;;;;;;21.42;19.30;;;;;;;7.37;99.63;99994.25;1026841;28;20286;-80
2022/01/04 00:55:30;;;;;;;23.95;20.33;;;;;;;7.42;100.00;99995.25;1027587;28;20275;-80
2022/01/04 00:56:01;;;;;;;27.40;19.42;;;;;;;7.40;99.80;99991.19;1027870;28;20293;-79
2022/01/04 00:56:33;;;;;;;21.80;18.73;;;;;;;7.41;99.47;99993.63;1033863;28;20647;-79
2022/01/04 00:57:05;;;;;;;24.70;20.95;;;;;;;7.41;99.83;99996.28;1033681;28;20339;-79
2022/01/04 00:57:36;;;;;;;24.92;20.08;;;;;;;7.39;99.26;99985.06;1029163;28;20288;-79
2022/01/04 00:58:08;;;;;;;26.35;20.35;;;;;;;7.40;99.88;99991.19;1037847;28;20284;-79
2022/01/04 00:58:39;;;;;;;24.58;19.08;;;;;;;7.42;99.43;99994.44;1037757;28;20289;-79
2022/01/04 00:59:11;;;;;;;25.73;20.38;;;;;;;7.41;100.00;99987.50;1032082;28;20440;-80
2022/01/04 00:59:43;;;;;;;24.88;20.42;;;;;;;7.42;99.66;99982.00;1035259;28;20703;-79
2022/01/04 01:00:16;;;;;;;28.52;21.17;;;;;;;7.46;99.60;99990.31;1031340;28;20302;-80
2022/01/04 01:00:47;;;;;;;24.80;20.90;;;;;;;7.48;99.64;99982.97;1024100;28;20302;-79
2022/01/04 01:01:19;;;;;;;27.92;20.88;;;;;;;7.47;100.00;99988.47;1023013;28;20286;-79
2022/01/04 01:01:51;;;;;;;23.63;20.67;;;;;;;7.46;99.58;99992.16;1023941;28;20279;-79
2022/01/04 01:02:23;;;;;;;27.23;20.42;;;;;;;7.46;99.62;99990.31;1026322;28;20290;-79
2022/01/04 01:02:55;;;;;;;24.77;19.95;;;;;;;7.51;100.00;99982.53;1032471;28;20281;-79
2022/01/04 01:03:26;;;;;;;28.70;21.40;;;;;;;7.48;100.00;99980.31;1031036;28;20292;-80
2022/01/04 01:03:58;;;;;;;25.75;19.45;;;;;;;7.48;100.00;99979.50;1025764;28;20282;-80
2022/01/04 01:04:29;;;;;;;34.10;21.60;;;;;;;7.47;100.00;99978.69;1033651;28;20284;-80
2022/01/04 01:05:01;;;;;;;28.75;20.15;;;;;;;7.51;100.00;99982.53;1030305;28;20793;-78
2022/01/04 01:05:33;;;;;;;26.75;21.80;;;;;;;7.50;100.00;99978.25;1035469;28;20645;-80
2022/01/04 01:06:04;;;;;;;24.35;21.75;;;;;;;7.48;99.58;99977.66;1031179;28;20309;-80
2022/01/04 01:06:37;;;;;;;30.42;20.40;;;;;;;7.49;99.66;99973.97;1031987;28;20657;-79
2022/01/04 01:07:08;;;;;;;23.63;21.17;;;;;;;7.48;99.89;99982.97;1025261;28;20385;-78
2022/01/04 01:07:40;;;;;;;25.50;22.08;;;;;;;7.47;99.58;99985.84;1026784;28;20290;-78
2022/01/04 01:08:12;;;;;;;34.28;22.33;;;;;;;7.42;100.00;99979.34;1026872;28;20296;-78
2022/01/04 01:08:43;;;;;;;27.60;22.23;;;;;;;7.42;100.00;99973.25;1023648;28;20366;-78
2022/01/04 01:09:15;;;;;;;27.95;20.48;;;;;;;7.46;100.00;99976.25;1027186;28;20302;-78
2022/01/04 01:10:16;;;;;;;31.45;22.02;;;;;;;7.48;100.00;99968.91;1031519;28;20289;-77
2022/01/04 01:10:49;;;;;;;25.40;18.70;;;;;;;7.48;100.00;99972.38;1032473;28;20315;-78
2022/01/04 01:11:21;;;;;;;30.45;21.02;;;;;;;7.45;100.00;99980.75;1031258;28;20046;-78
2022/01/04 01:11:53;;;;;;;20.48;18.38;;;;;;;7.47;100.00;99969.94;1017160;29;20287;-78
2022/01/04 01:12:24;;;;;;;24.17;19.83;;;;;;;7.46;100.00;99974.41;1023471;28;20820;-79
2022/01/04 01:12:56;;;;;;;25.70;19.50;;;;;;;7.44;100.00;99976.47;1023459;28;20289;-78
2022/01/04 01:13:27;;;;;;;26.30;18.92;;;;;;;7.44;99.65;99976.47;1027182;28;20282;-78
2022/01/04 01:13:59;;;;;;;28.00;20.77;;;;;;;7.44;99.97;99971.19;1023296;28;20763;-78
2022/01/04 01:14:30;;;;;;;22.50;20.08;;;;;;;7.42;100.00;99973.25;1027730;28;20289;-78
2022/01/04 01:15:03;;;;;;;24.25;20.35;;;;;;;7.44;100.00;99971.19;1035082;28;20292;-79
2022/01/04 01:15:36;;;;;;;28.70;19.85;;;;;;;7.47;100.00;99976.03;1035289;28;20653;-78
2022/01/04 01:16:08;;;;;;;23.73;18.38;;;;;;;7.48;100.00;99967.06;1032394;28;20780;-78
2022/01/04 01:16:39;;;;;;;27.50;19.80;;;;;;;7.48;100.00;99966.25;1026985;28;20281;-78
2022/01/04 01:17:11;;;;;;;23.42;18.10;;;;;;;7.43;99.88;99964.25;1026785;28;20286;-78
2022/01/04 01:17:42;;;;;;;22.60;18.20;;;;;;;7.44;99.76;99960.59;1026770;28;20278;-78
2022/01/04 01:18:16;;;;;;;25.13;18.58;;;;;;;7.48;100.00;99961.75;1029926;28;20398;-78
2022/01/04 01:18:48;;;;;;;20.88;18.60;;;;;;;7.47;100.00;99964.63;1034236;28;20289;-78
2022/01/04 01:19:21;;;;;;;23.60;19.50;;;;;;;7.46;100.00;99966.47;1026809;28;20278;-78
2022/01/04 01:19:52;;;;;;;24.67;19.30;;;;;;;7.41;100.00;99963.66;1026148;28;20286;-78
2022/01/04 01:20:24;;;;;;;24.67;18.10;;;;;;;7.43;100.00;99964.25;1028092;28;20290;-78
2022/01/04 01:20:55;;;;;;;23.52;19.00;;;;;;;7.40;100.00;99964.69;1027244;28;20792;-78
2022/01/04 01:21:27;;;;;;;26.85;18.65;;;;;;;7.42;100.00;99965.28;1023523;28;20317;-78
2022/01/04 01:21:58;;;;;;;28.65;19.20;;;;;;;7.40;100.00;99959.41;1022428;29;20283;-78
2022/01/04 01:22:30;;;;;;;20.73;18.08;;;;;;;7.40;100.00;99954.09;1023110;28;20286;-78
2022/01/04 01:23:02;;;;;;;21.17;18.83;;;;;;;7.42;100.00;99957.34;1030712;28;20289;-78
2022/01/04 01:23:35;;;;;;;21.98;18.10;;;;;;;7.39;100.00;99955.09;1031305;28;20289;-78
2022/01/04 01:24:06;;;;;;;26.45;20.00;;;;;;;7.40;100.00;99952.25;1026607;28;20305;-78
2022/01/04 01:24:38;;;;;;;24.27;20.15;;;;;;;7.39;100.00;99957.75;1026909;28;20460;-78
2022/01/04 01:25:12;;;;;;;23.83;19.38;;;;;;;7.41;100.00;99956.53;1027358;28;20294;-78
2022/01/04 01:25:44;;;;;;;28.00;20.65;;;;;;;7.40;100.00;99956.75;1028199;28;20719;-78
2022/01/04 01:26:15;;;;;;;25.40;20.73;;;;;;;7.40;100.00;99959.41;1030726;28;20649;-78
2022/01/04 01:26:47;;;;;;;34.65;21.15;;;;;;;7.41;100.00;99955.72;1019089;29;20755;-78
2022/01/04 01:27:18;;;;;;;22.38;20.00;;;;;;;7.41;99.97;99951.22;1023228;28;20279;-78
2022/01/04 01:27:50;;;;;;;22.08;19.15;;;;;;;7.43;100.00;99953.66;1023404;28;20291;-78
2022/01/04 01:28:22;;;;;;;28.63;20.15;;;;;;;7.41;100.00;99950.41;1026900;28;20361;-78
2022/01/04 01:28:53;;;;;;;21.88;19.60;;;;;;;7.39;100.00;99947.16;1026823;28;20285;-78
2022/01/04 01:29:25;;;;;;;24.92;19.50;;;;;;;7.37;100.00;99950.03;1029908;28;20270;-78
2022/01/04 01:29:56;;;;;;;23.92;20.20;;;;;;;7.37;100.00;99949.22;1029632;28;20289;-77
2022/01/04 01:30:29;;;;;;;22.35;19.92;;;;;;;7.42;100.00;99946.75;1029215;28;20360;-78
2022/01/04 01:31:01;;;;;;;29.08;20.33;;;;;;;7.40;99.99;99946.97;1030258;28;20309;-78
2022/01/04 01:31:33;;;;;;;25.90;19.92;;;;;;;7.34;100.00;99939.84;1022945;28;20312;-78
2022/01/04 01:32:05;;;;;;;21.95;19.45;;;;;;;7.33;100.00;99940.06;1028395;28;20301;-78
2022/01/04 01:32:37;;;;;;;26.23;19.83;;;;;;;7.30;100.00;99945.81;1030969;28;20293;-78
2022/01/04 01:33:09;;;;;;;21.48;19.00;;;;;;;7.34;100.00;99945.16;1026551;28;20290;-78
2022/01/04 01:33:41;;;;;;;21.48;19.17;;;;;;;7.35;100.00;99940.66;1022571;29;20286;-77
2022/01/04 01:34:12;;;;;;;28.23;20.23;;;;;;;7.36;100.00;99942.28;1022698;29;20299;-78
2022/01/04 01:34:44;;;;;;;22.55;20.15;;;;;;;7.35;100.00;99938.84;1018753;29;20309;-77
2022/01/04 01:35:15;;;;;;;23.50;19.30;;;;;;;7.33;100.00;99937.44;1019195;28;20308;-78
2022/01/04 01:35:47;;;;;;;28.83;20.52;;;;;;;7.32;100.00;99938.47;1018151;29;20353;-78
2022/01/04 01:36:20;;;;;;;29.10;20.95;;;;;;;7.35;100.00;99938.03;1024908;28;20286;-78
2022/01/04 01:36:51;;;;;;;25.33;19.90;;;;;;;7.34;100.00;99939.84;1027184;28;20278;-78
2022/01/04 01:37:23;;;;;;;21.92;19.65;;;;;;;7.36;100.00;99940.44;1028257;28;20276;-78
2022/01/04 01:37:54;;;;;;;25.23;20.98;;;;;;;7.37;100.00;99943.91;1022636;29;20766;-78
2022/01/04 01:38:26;;;;;;;28.33;21.50;;;;;;;7.43;100.00;99935.13;1025110;28;20282;-78
2022/01/04 01:38:57;;;;;;;23.63;19.30;;;;;;;7.37;99.95;99941.25;1027393;28;20290;-78
2022/01/04 01:39:29;;;;;;;23.70;18.88;;;;;;;7.36;100.00;99927.22;1024600;28;20417;-78
2022/01/04 01:40:03;;;;;;;28.55;19.75;;;;;;;7.41;100.00;99939.81;1030736;28;20662;-78
2022/01/04 01:40:36;;;;;;;25.35;20.20;;;;;;;7.36;100.00;99929.03;1034001;28;20292;-78
2022/01/04 01:41:07;;;;;;;25.13;19.67;;;;;;;7.35;100.00;99935.38;1027323;28;20377;-78
2022/01/04 01:41:39;;;;;;;24.77;20.40;;;;;;;7.34;100.00;99933.75;1030367;28;20281;-78
2022/01/04 01:42:10;;;;;;;25.75;20.08;;;;;;;7.35;100.00;99935.38;1030621;28;20303;-78
2022/01/04 01:42:42;;;;;;;22.65;19.38;;;;;;;7.38;100.00;99929.63;1026124;28;20305;-78
2022/01/04 01:43:13;;;;;;;22.05;19.83;;;;;;;7.37;100.00;99931.47;1028091;28;20296;-78
2022/01/04 01:43:47;;;;;;;29.83;20.63;;;;;;;7.34;99.86;99923.97;1030367;28;20294;-77
2022/01/04 01:44:20;;;;;;;28.25;20.98;;;;;;;7.35;100.00;99924.78;1029409;28;20298;-78
2022/01/04 01:44:51;;;;;;;21.55;19.23;;;;;;;7.36;99.91;99937.00;1027728;28;20282;-78
2022/01/04 01:45:24;;;;;;;24.98;20.52;;;;;;;7.40;100.00;99927.59;1030166;28;20840;-78
2022/01/04 01:45:57;;;;;;;26.60;19.83;;;;;;;7.37;100.00;99928.00;1026588;28;20313;-78
2022/01/04 01:46:28;;;;;;;24.15;19.95;;;;;;;7.39;100.00;99926.75;1025589;28;20707;-78
2022/01/04 01:47:00;;;;;;;23.42;21.02;;;;;;;7.38;100.00;99927.78;1023399;28;20282;-78
2022/01/04 01:47:32;;;;;;;22.42;20.02;;;;;;;7.39;99.96;99920.66;1023209;28;20678;-78
2022/01/04 01:48:04;;;;;;;24.25;20.02;;;;;;;7.40;100.00;99927.59;1022595;28;20322;-78
2022/01/04 01:48:35;;;;;;;23.67;20.27;;;;;;;7.38;100.00;99921.69;1018445;29;20355;-78
2022/01/04 01:49:07;;;;;;;27.33;19.90;;;;;;;7.38;100.00;99925.16;1024686;28;20762;-78
2022/01/04 01:49:41;;;;;;;23.55;20.52;;;;;;;7.38;100.00;99919.84;1026772;28;20309;-78
2022/01/04 01:50:13;;;;;;;28.77;20.05;;;;;;;7.39;100.00;99916.16;1025740;28;20286;-77
2022/01/04 01:50:45;;;;;;;24.88;19.73;;;;;;;7.37;100.00;99912.94;1022530;29;20287;-78
2022/01/04 01:51:17;;;;;;;26.30;20.20;;;;;;;7.36;100.00;99924.56;1019907;29;20276;-79
2022/01/04 01:51:49;;;;;;;21.63;18.13;;;;;;;7.36;100.00;99921.09;1018268;29;20288;-78
2022/01/04 01:52:20;;;;;;;24.88;19.15;;;;;;;7.36;100.00;99921.09;1022202;29;20675;-78
2022/01/04 01:52:52;;;;;;;23.88;20.45;;;;;;;7.35;100.00;99920.28;1026503;28;20829;-78
2022/01/04 01:53:24;;;;;;;23.50;19.00;;;;;;;7.35;100.00;99919.47;1027648;28;20457;-78
2022/01/04 01:53:56;;;;;;;22.05;19.27;;;;;;;7.37;100.00;99917.41;1032014;28;20343;-78
2022/01/04 01:54:27;;;;;;;24.55;19.38;;;;;;;7.42;100.00;99917.59;1028161;28;20301;-79
2022/01/04 01:54:59;;;;;;;29.50;20.88;;;;;;;7.39;100.00;99920.66;1024620;28;20767;-79
2022/01/04 01:55:31;;;;;;;26.88;20.02;;;;;;;7.38;99.99;99921.69;1031368;28;20294;-79
2022/01/04 01:56:02;;;;;;;25.42;20.63;;;;;;;7.38;100.00;99919.03;1034387;28;20285;-79
2022/01/04 01:56:34;;;;;;;24.13;19.63;;;;;;;7.36;100.00;99926.41;1033625;28;20292;-78
2022/01/04 01:57:08;;;;;;;22.98;19.42;;;;;;;7.32;100.00;99920.72;1030714;28;20304;-78
2022/01/04 01:57:39;;;;;;;28.17;20.52;;;;;;;7.33;100.00;99917.03;1032405;28;20285;-78
2022/01/04 01:58:11;;;;;;;22.77;19.45;;;;;;;7.35;100.00;99914.19;1037119;28;20756;-78
2022/01/04 01:58:43;;;;;;;25.20;19.20;;;;;;;7.35;100.00;99920.28;1038882;28;20291;-78
2022/01/04 01:59:14;;;;;;;26.15;20.63;;;;;;;7.35;100.00;99927.41;1037043;28;20300;-79
2022/01/04 01:59:46;;;;;;;23.63;19.23;;;;;;;7.36;100.00;99918.44;1033099;28;20296;-79
2022/01/04 02:00:19;;;;;;;22.38;19.33;;;;;;;7.39;100.00;99915.34;1031803;28;20287;-80
2022/01/04 02:00:51;;;;;;;22.65;20.10;;;;;;;7.39;100.00;99915.34;1034171;28;20280;-79
2022/01/04 02:01:23;;;;;;;26.73;19.67;;;;;;;7.39;100.00;99920.66;1034891;28;20328;-79
2022/01/04 02:01:56;;;;;;;27.13;18.95;;;;;;;7.39;100.00;99910.06;1031619;28;20285;-79
2022/01/04 02:02:28;;;;;;;26.25;19.38;;;;;;;7.38;100.00;99908.44;1027216;28;20281;-79
2022/01/04 02:03:02;;;;;;;24.00;19.75;;;;;;;7.38;100.00;99916.38;1031874;28;20288;-79
2022/01/04 02:03:34;;;;;;;23.60;21.15;;;;;;;7.39;100.00;99915.34;1031448;28;20305;-79
2022/01/04 02:04:05;;;;;;;26.67;19.42;;;;;;;7.36;99.93;99910.50;1036975;28;20297;-80
2022/01/04 02:04:37;;;;;;;22.65;20.23;;;;;;;7.38;99.95;99911.09;1040089;28;20280;-79
2022/01/04 02:05:09;;;;;;;26.23;20.52;;;;;;;7.34;100.00;99907.25;1033813;28;20702;-79
2022/01/04 02:05:41;;;;;;;29.35;20.45;;;;;;;7.35;100.00;99908.88;1031929;28;20634;-79
2022/01/04 02:06:13;;;;;;;23.33;21.00;;;;;;;7.33;100.00;99913.59;1027955;28;20313;-80
2022/01/04 02:06:45;;;;;;;24.80;20.00;;;;;;;7.35;100.00;99908.88;1030197;28;20293;-79
2022/01/04 02:07:19;;;;;;;21.85;19.58;;;;;;;7.40;100.00;99909.06;1034214;28;20289;-79
2022/01/04 02:07:51;;;;;;;21.65;18.80;;;;;;;7.37;99.86;99906.81;1033589;28;20312;-80
2022/01/04 02:08:22;;;;;;;26.50;21.05;;;;;;;7.37;100.00;99909.47;1034170;28;20300;-79
2022/01/04 02:08:54;;;;;;;25.15;19.90;;;;;;;7.36;100.00;99898.06;1035609;28;20273;-79
2022/01/04 02:09:26;;;;;;;23.33;20.00;;;;;;;7.36;100.00;99900.72;1035880;28;20281;-79
2022/01/04 02:10:05;;;;;;;26.13;19.00;;;;;;;7.37;100.00;99904.16;1032407;28;20289;-79
2022/01/04 02:10:37;;;;;;;22.05;19.40;;;;;;;7.34;100.00;99908.06;1034217;28;20364;-79
2022/01/04 02:11:08;;;;;;;22.15;18.83;;;;;;;7.35;100.00;99906.22;1033080;28;20300;-79
2022/01/04 02:11:41;;;;;;;31.30;21.65;;;;;;;7.33;100.00;99903.00;1035590;28;20281;-79
2022/01/04 02:12:12;;;;;;;24.50;20.10;;;;;;;7.32;100.00;99904.03;1030391;28;20768;-79
2022/01/04 02:12:49;;;;;;;28.65;19.77;;;;;;;7.31;100.00;99900.56;1028482;28;20274;-80
2022/01/04 02:13:20;;;;;;;21.02;18.65;;;;;;;7.32;100.00;99894.22;1026205;28;20282;-79
2022/01/04 02:13:52;;;;;;;24.33;20.60;;;;;;;7.33;99.83;99895.03;1025839;28;20283;-78
2022/01/04 02:14:25;;;;;;;28.75;20.05;;;;;;;7.32;100.00;99898.72;1025957;28;20293;-79
2022/01/04 02:14:57;;;;;;;21.13;18.77;;;;;;;7.32;100.00;99896.06;1025242;28;20279;-78
2022/01/04 02:15:30;;;;;;;21.23;18.67;;;;;;;7.39;100.00;99892.31;1030696;28;20290;-78
2022/01/04 02:16:02;;;;;;;23.00;19.17;;;;;;;7.37;100.00;99898.88;1023729;28;20369;-78
2022/01/04 02:16:34;;;;;;;21.63;19.27;;;;;;;7.39;99.90;99894.16;1027573;28;20285;-78
2022/01/04 02:17:05;;;;;;;25.50;19.08;;;;;;;7.39;99.91;99894.16;1027162;28;20384;-78
2022/01/04 02:17:37;;;;;;;21.80;18.75;;;;;;;7.38;100.00;99887.25;1026685;28;20594;-78
2022/01/04 02:18:09;;;;;;;22.55;19.17;;;;;;;7.40;100.00;99885.22;1032099;28;20297;-78
2022/01/04 02:18:40;;;;;;;21.70;19.50;;;;;;;7.41;100.00;99886.84;1027097;28;20876;-78
2022/01/04 02:19:12;;;;;;;20.90;18.45;;;;;;;7.41;99.64;99881.53;1025270;28;20305;-78
2022/01/04 02:19:44;;;;;;;24.67;19.63;;;;;;;7.40;99.75;99885.22;1027943;28;20286;-78
2022/01/04 02:20:16;;;;;;;20.58;18.35;;;;;;;7.36;99.98;99884.00;1031872;28;20640;-78
2022/01/04 02:20:48;;;;;;;31.02;20.48;;;;;;;7.36;100.00;99884.00;1033084;28;20313;-78
2022/01/04 02:21:19;;;;;;;21.65;18.98;;;;;;;7.38;100.00;99879.31;1029626;28;20282;-78
2022/01/04 02:21:51;;;;;;;26.50;19.98;;;;;;;7.37;99.70;99882.97;1029895;28;20290;-78
2022/01/04 02:22:23;;;;;;;21.90;19.55;;;;;;;7.38;100.00;99876.66;1030431;28;20300;-78
2022/01/04 02:22:55;;;;;;;24.88;19.77;;;;;;;7.36;99.99;99873.41;1027510;28;20278;-78
2022/01/04 02:23:26;;;;;;;23.63;20.23;;;;;;;7.40;99.67;99886.03;1024603;28;20297;-78
2022/01/04 02:23:58;;;;;;;21.73;19.52;;;;;;;7.36;99.50;99878.72;1025628;28;20294;-78
2022/01/04 02:24:32;;;;;;;28.83;20.13;;;;;;;7.36;99.74;99878.72;1027345;28;20282;-78
2022/01/04 02:25:05;;;;;;;26.52;19.52;;;;;;;7.37;100.00;99872.38;1024410;28;20422;-78
2022/01/04 02:25:36;;;;;;;28.63;20.13;;;;;;;7.37;100.00;99872.38;1028043;28;20282;-78
2022/01/04 02:26:08;;;;;;;21.85;18.80;;;;;;;7.33;99.91;99874.66;1029786;28;20372;-77
2022/01/04 02:26:40;;;;;;;22.60;18.90;;;;;;;7.34;100.00;99870.19;1032709;28;20747;-79
2022/01/04 02:27:13;;;;;;;24.58;19.27;;;;;;;7.36;99.93;99873.41;1034094;28;20324;-78
2022/01/04 02:27:46;;;;;;;23.58;18.15;;;;;;;7.37;100.00;99872.38;1033738;28;20522;-78
2022/01/04 02:28:20;;;;;;;21.30;18.98;;;;;;;7.34;100.00;99872.81;1031364;28;20282;-78
2022/01/04 02:28:52;;;;;;;26.70;20.00;;;;;;;7.32;100.00;99866.94;1031487;28;20345;-78
2022/01/04 02:29:23;;;;;;;27.88;20.77;;;;;;;7.32;100.00;99873.03;1028011;28;20370;-78
2022/01/04 02:29:55;;;;;;;23.75;18.80;;;;;;;7.32;100.00;99874.88;1032055;28;20281;-78
2022/01/04 02:30:27;;;;;;;27.70;21.58;;;;;;;7.32;99.93;99874.88;1031112;28;20285;-79
2022/01/04 02:30:58;;;;;;;21.75;19.50;;;;;;;7.35;99.66;99866.50;1027303;28;20282;-79